createdAt,value
2022-11-10T00:00:32.711Z,83.04
2022-11-10T00:03:14.847Z,82.94
2022-11-10T00:05:56.840Z,83.05
2022-11-10T00:08:39.083Z,83.13
2022-11-10T00:11:21.311Z,82.94
2022-11-10T00:14:19.646Z,82.88
2022-11-10T00:17:02.121Z,83.01
2022-11-10T00:19:44.409Z,83.03
2022-11-10T00:22:26.649Z,82.95
2022-11-10T00:25:08.917Z,83.21
2022-11-10T00:27:51.318Z,83.06
2022-11-10T00:30:33.343Z,83.05
2022-11-10T00:33:15.609Z,82.87
2022-11-10T00:36:00.456Z,82.85
2022-11-10T00:38:42.839Z,82.88
2022-11-10T00:41:25.159Z,82.90
2022-11-10T00:44:07.524Z,82.96
2022-11-10T00:46:49.906Z,82.94
2022-11-10T00:49:32.155Z,83.26
2022-11-10T00:52:14.384Z,83.35
2022-11-10T00:54:56.687Z,83.25
2022-11-10T00:57:39.003Z,83.28
2022-11-10T01:00:21.367Z,83.49
2022-11-10T01:03:03.940Z,83.35
2022-11-10T01:05:45.995Z,83.14
2022-11-10T01:08:28.136Z,83.12
2022-11-10T01:11:16.202Z,82.95
2022-11-10T01:13:58.530Z,82.80
2022-11-10T01:16:40.837Z,82.84
2022-11-10T01:19:23.020Z,82.74
2022-11-10T01:22:05.399Z,83.04
2022-11-10T01:24:48.249Z,83.06
2022-11-10T01:27:30.447Z,82.95
2022-11-10T01:30:13.043Z,82.83
2022-11-10T01:32:56.125Z,82.86
2022-11-10T01:35:38.507Z,82.96
2022-11-10T01:38:21.244Z,82.62
2022-11-10T01:41:06.301Z,82.63
2022-11-10T01:43:48.759Z,82.51
2022-11-10T01:46:31.076Z,82.43
2022-11-10T01:49:15.672Z,82.41
2022-11-10T01:52:04.796Z,82.14
2022-11-10T01:54:49.253Z,82.42
2022-11-10T01:57:32.096Z,82.36
2022-11-10T02:00:16.576Z,82.42
2022-11-10T02:03:24.750Z,82.29
2022-11-10T02:06:08.796Z,82.27
2022-11-10T02:08:52.475Z,82.35
2022-11-10T02:11:35.461Z,82.67
2022-11-10T02:14:17.933Z,82.61
2022-11-10T02:17:00.662Z,82.32
2022-11-10T02:19:42.999Z,82.45
2022-11-10T02:22:25.450Z,82.25
2022-11-10T02:25:08.324Z,82.21
2022-11-10T02:27:50.388Z,82.07
2022-11-10T02:30:32.474Z,82.06
2022-11-10T02:33:14.513Z,82.03
2022-11-10T02:35:56.980Z,82.03
2022-11-10T02:38:40.382Z,82.00
2022-11-10T02:41:22.834Z,81.83
2022-11-10T02:44:07.110Z,81.77
2022-11-10T02:46:49.661Z,81.83
2022-11-10T02:49:31.738Z,81.78
2022-11-10T02:52:13.988Z,81.93
2022-11-10T02:54:56.702Z,82.04
2022-11-10T02:57:39.050Z,82.03
2022-11-10T03:00:21.439Z,82.08
2022-11-10T03:03:05.133Z,82.14
2022-11-10T03:05:47.260Z,82.16
2022-11-10T03:08:29.443Z,82.07
2022-11-10T03:11:11.771Z,82.16
2022-11-10T03:14:00.930Z,82.04
2022-11-10T03:16:44.195Z,81.99
2022-11-10T03:19:26.325Z,81.96
2022-11-10T03:22:08.778Z,81.93
2022-11-10T03:24:51.121Z,81.93
2022-11-10T03:27:33.255Z,81.89
2022-11-10T03:30:15.702Z,81.85
2022-11-10T03:32:57.898Z,81.83
2022-11-10T03:35:40.079Z,81.71
2022-11-10T03:38:22.488Z,81.50
2022-11-10T03:41:18.817Z,81.24
2022-11-10T03:44:02.821Z,81.10
2022-11-10T03:46:49.048Z,81.01
2022-11-10T03:49:33.643Z,80.80
2022-11-10T03:52:16.944Z,80.59
2022-11-10T03:55:03.350Z,80.69
2022-11-10T03:57:46.453Z,80.65
2022-11-10T04:00:29.401Z,80.52
2022-11-10T04:03:12.164Z,80.43
2022-11-10T04:06:09.549Z,80.20
2022-11-10T04:08:59.240Z,80.18
2022-11-10T04:11:56.665Z,80.36
2022-11-10T04:14:54.305Z,80.40
2022-11-10T04:17:36.618Z,80.51
2022-11-10T04:20:34.725Z,80.50
2022-11-10T04:23:32.610Z,80.40
2022-11-10T04:26:31.229Z,80.46
2022-11-10T04:29:14.430Z,80.43
2022-11-10T04:31:56.998Z,80.41
2022-11-10T04:34:38.990Z,80.38
2022-11-10T04:37:20.811Z,80.41
2022-11-10T04:40:03.712Z,80.47
2022-11-10T04:42:46.127Z,80.42
2022-11-10T04:45:28.331Z,80.43
2022-11-10T04:48:10.805Z,80.41
2022-11-10T04:50:53.252Z,80.60
2022-11-10T04:53:35.356Z,80.51
2022-11-10T04:56:19.858Z,80.45
2022-11-10T04:59:01.891Z,80.49
2022-11-10T05:01:44.370Z,80.58
2022-11-10T05:04:26.600Z,80.53
2022-11-10T05:07:09.035Z,80.73
2022-11-10T05:09:51.263Z,80.77
2022-11-10T05:12:33.296Z,80.69
2022-11-10T05:15:15.330Z,80.67
2022-11-10T05:17:58.561Z,80.72
2022-11-10T05:20:40.855Z,80.74
2022-11-10T05:23:39.250Z,80.70
2022-11-10T05:26:21.753Z,80.60
2022-11-10T05:29:04.297Z,80.65
2022-11-10T05:31:51.290Z,80.59
2022-11-10T05:34:33.933Z,80.47
2022-11-10T05:37:16.073Z,80.55
2022-11-10T05:39:58.733Z,80.41
2022-11-10T05:42:44.733Z,80.40
2022-11-10T05:45:28.855Z,80.26
2022-11-10T05:48:11.383Z,80.24
2022-11-10T05:50:53.381Z,80.27
2022-11-10T05:53:35.567Z,80.36
2022-11-10T05:56:17.837Z,80.33
2022-11-10T05:59:00.436Z,80.36
2022-11-10T06:01:42.459Z,80.35
2022-11-10T06:04:24.808Z,80.21
2022-11-10T06:07:08.201Z,80.26
2022-11-10T06:09:50.621Z,80.29
2022-11-10T06:12:32.796Z,80.31
2022-11-10T06:15:15.955Z,80.35
2022-11-10T06:17:58.490Z,80.16
2022-11-10T06:20:40.790Z,80.14
2022-11-10T06:23:23.300Z,80.30
2022-11-10T06:26:05.876Z,80.12
2022-11-10T06:28:48.229Z,80.31
2022-11-10T06:31:30.448Z,80.34
2022-11-10T06:34:12.852Z,80.56
2022-11-10T06:36:55.140Z,80.72
2022-11-10T06:39:39.812Z,80.87
2022-11-10T06:42:22.327Z,80.93
2022-11-10T06:45:05.088Z,80.90
2022-11-10T06:47:47.460Z,80.96
2022-11-10T06:50:30.018Z,81.07
2022-11-10T06:53:13.623Z,80.97
2022-11-10T06:55:55.891Z,80.99
2022-11-10T06:58:38.258Z,80.82
2022-11-10T07:01:22.724Z,80.93
2022-11-10T07:04:19.399Z,81.09
2022-11-10T07:07:02.684Z,81.06
2022-11-10T07:09:44.704Z,81.19
2022-11-10T07:12:26.989Z,81.10
2022-11-10T07:15:10.109Z,81.29
2022-11-10T07:17:52.616Z,81.30
2022-11-10T07:20:35.465Z,81.21
2022-11-10T07:23:17.709Z,81.39
2022-11-10T07:26:00.673Z,81.40
2022-11-10T07:28:42.855Z,81.56
2022-11-10T07:31:25.177Z,81.43
2022-11-10T07:34:07.803Z,81.41
2022-11-10T07:36:49.885Z,81.54
2022-11-10T07:39:32.016Z,81.63
2022-11-10T07:42:14.553Z,81.76
2022-11-10T07:44:56.815Z,82.19
2022-11-10T07:47:38.948Z,82.40
2022-11-10T07:50:21.537Z,82.46
2022-11-10T07:53:08.133Z,82.64
2022-11-10T07:55:50.635Z,82.92
2022-11-10T07:58:35.222Z,82.91
2022-11-10T08:01:17.710Z,83.06
2022-11-10T08:04:00.494Z,83.19
2022-11-10T08:06:43.144Z,83.00
2022-11-10T08:09:25.023Z,82.90
2022-11-10T08:12:07.097Z,83.09
2022-11-10T08:14:50.353Z,83.33
2022-11-10T08:17:32.589Z,83.59
2022-11-10T08:20:15.212Z,83.69
2022-11-10T08:22:59.636Z,83.96
2022-11-10T08:25:42.198Z,83.71
2022-11-10T08:28:24.453Z,83.72
2022-11-10T08:31:06.981Z,83.68
2022-11-10T08:33:48.910Z,83.66
2022-11-10T08:36:31.259Z,83.76
2022-11-10T08:39:24.897Z,83.70
2022-11-10T08:42:17.163Z,83.84
2022-11-10T08:44:59.222Z,83.90
2022-11-10T08:47:41.487Z,83.86
2022-11-10T08:50:23.818Z,83.16
2022-11-10T08:53:10.696Z,82.69
2022-11-10T08:55:53.981Z,82.77
2022-11-10T08:58:47.268Z,82.61
2022-11-10T09:01:32.880Z,82.52
2022-11-10T09:04:16.040Z,82.13
2022-11-10T09:06:58.488Z,82.15
2022-11-10T09:09:41.884Z,82.45
2022-11-10T09:12:24.148Z,82.31
2022-11-10T09:15:08.644Z,82.05
2022-11-10T09:17:50.984Z,81.99
2022-11-10T09:20:35.391Z,82.14
2022-11-10T09:23:18.804Z,81.88
2022-11-10T09:26:01.464Z,81.42
2022-11-10T09:28:43.607Z,81.33
2022-11-10T09:31:26.047Z,81.20
2022-11-10T09:34:10.079Z,80.89
2022-11-10T09:36:52.191Z,80.77
2022-11-10T09:39:34.355Z,80.59
2022-11-10T09:42:35.049Z,80.76
2022-11-10T09:45:21.852Z,80.85
2022-11-10T09:48:06.950Z,80.93
2022-11-10T09:50:57.220Z,81.32
2022-11-10T09:53:55.305Z,81.65
2022-11-10T09:56:37.987Z,81.80
2022-11-10T09:59:27.049Z,82.30
2022-11-10T10:02:18.154Z,82.36
2022-11-10T10:05:28.518Z,82.61
2022-11-10T10:08:22.651Z,82.85
2022-11-10T10:11:21.103Z,82.81
2022-11-10T10:14:19.971Z,83.11
2022-11-10T10:17:15.991Z,82.94
2022-11-10T10:20:12.831Z,82.92
2022-11-10T10:23:09.507Z,82.80
2022-11-10T10:25:53.262Z,82.71
2022-11-10T10:28:39.379Z,82.71
2022-11-10T10:31:28.431Z,83.00
2022-11-10T10:34:15.496Z,83.00
2022-11-10T10:36:58.210Z,82.83
2022-11-10T10:39:48.297Z,82.30
2022-11-10T10:42:31.960Z,82.15
2022-11-10T10:45:15.657Z,81.41
2022-11-10T10:47:58.363Z,81.05
2022-11-10T10:50:42.781Z,80.90
2022-11-10T10:53:25.399Z,80.68
2022-11-10T10:56:17.523Z,80.23
2022-11-10T10:59:04.025Z,80.30
2022-11-10T11:04:45.734Z,80.36
2022-11-10T11:07:28.046Z,80.24
2022-11-10T11:10:20.264Z,80.35
2022-11-10T11:13:22.085Z,80.20
2022-11-10T11:16:07.977Z,80.02
2022-11-10T11:18:50.720Z,79.54
2022-11-10T11:21:43.874Z,78.93
2022-11-10T11:24:42.702Z,78.64
2022-11-10T11:27:34.136Z,78.33
2022-11-10T11:30:19.791Z,78.46
2022-11-10T11:33:26.025Z,77.90
2022-11-10T11:36:16.968Z,77.25
2022-11-10T11:39:22.610Z,76.56
2022-11-10T11:42:10.756Z,76.16
2022-11-10T11:45:03.842Z,76.45
2022-11-10T11:48:01.583Z,76.61
2022-11-10T11:50:45.097Z,76.22
2022-11-10T11:53:52.427Z,75.24
2022-11-10T11:56:41.316Z,74.48
2022-11-10T11:59:49.703Z,74.52
2022-11-10T12:03:03.396Z,73.49
2022-11-10T12:05:58.100Z,73.60
2022-11-10T12:08:39.906Z,72.83
2022-11-10T12:11:31.860Z,71.94
2022-11-10T12:14:34.579Z,71.96
2022-11-10T12:17:37.344Z,71.37
2022-11-10T12:20:23.086Z,71.35
2022-11-10T12:23:10.372Z,71.64
2022-11-10T12:26:00.761Z,71.65
2022-11-10T12:28:49.677Z,71.82
2022-11-10T12:31:38.150Z,72.06
2022-11-10T12:34:28.723Z,71.90
2022-11-10T12:37:26.641Z,71.36
2022-11-10T12:40:19.575Z,70.90
2022-11-10T12:43:05.861Z,69.68
2022-11-10T12:45:53.261Z,68.22
2022-11-10T12:48:56.298Z,66.64
2022-11-10T12:51:46.182Z,66.06
2022-11-10T12:54:29.056Z,65.63
2022-11-10T12:57:18.531Z,63.80
2022-11-10T13:00:05.337Z,63.15
2022-11-10T13:02:49.459Z,62.27
2022-11-10T13:05:34.855Z,61.50
2022-11-10T13:08:27.549Z,60.25
2022-11-10T13:11:11.518Z,60.18
2022-11-10T13:14:00.001Z,60.20
2022-11-10T13:16:42.504Z,61.15
2022-11-10T13:19:24.522Z,59.90
2022-11-10T13:22:11.622Z,59.86
2022-11-10T13:25:29.158Z,61.12
2022-11-10T13:28:11.876Z,61.99
2022-11-10T13:30:54.251Z,62.79
2022-11-10T13:33:38.127Z,62.86
2022-11-10T13:36:40.993Z,63.02
2022-11-10T13:39:27.836Z,62.72
2022-11-10T13:42:10.262Z,63.39
2022-11-10T13:44:54.111Z,64.01
2022-11-10T13:47:55.742Z,63.99
2022-11-10T13:50:45.447Z,64.52
2022-11-10T13:53:44.625Z,65.34
2022-11-10T13:56:54.029Z,65.98
2022-11-10T13:59:47.515Z,66.51
2022-11-10T14:02:39.147Z,66.75
2022-11-10T14:05:28.532Z,67.19
2022-11-10T14:08:13.494Z,67.52
2022-11-10T14:11:00.351Z,67.94
2022-11-10T14:13:43.840Z,68.15
2022-11-10T14:16:28.807Z,68.26
2022-11-10T14:19:24.766Z,68.45
2022-11-10T14:22:21.892Z,68.85
2022-11-10T14:25:17.360Z,69.32
2022-11-10T14:27:59.695Z,69.48
2022-11-10T14:30:41.757Z,69.49
2022-11-10T14:33:26.162Z,69.64
2022-11-10T14:36:13.021Z,69.50
2022-11-10T14:38:55.425Z,69.92
2022-11-10T14:41:47.346Z,69.98
2022-11-10T14:44:31.259Z,70.00
2022-11-10T14:47:32.054Z,70.08
2022-11-10T14:50:14.467Z,69.62
2022-11-10T14:53:02.469Z,69.39
2022-11-10T14:55:48.512Z,69.14
2022-11-10T14:58:38.398Z,69.43
2022-11-10T15:01:27.608Z,69.15
2022-11-10T15:04:12.194Z,69.27
2022-11-10T15:06:55.981Z,69.02
2022-11-10T15:09:38.642Z,69.11
2022-11-10T15:12:27.261Z,69.67
2022-11-10T15:15:24.879Z,70.03
2022-11-10T15:18:22.982Z,70.34
2022-11-10T15:21:11.247Z,71.05
2022-11-10T15:23:58.714Z,71.43
2022-11-10T15:26:42.126Z,72.12
2022-11-10T15:29:25.223Z,72.40
2022-11-10T15:32:15.750Z,72.86
2022-11-10T15:35:11.651Z,73.16
2022-11-10T15:38:09.469Z,73.75
2022-11-10T15:40:53.486Z,74.37
2022-11-10T15:43:35.705Z,74.98
2022-11-10T15:46:26.596Z,75.02
2022-11-10T15:49:21.832Z,75.32
2022-11-10T15:52:11.500Z,75.75
2022-11-10T15:54:53.627Z,75.89
2022-11-10T15:57:37.463Z,75.99
2022-11-10T16:00:20.032Z,76.30
2022-11-10T16:03:02.237Z,76.52
2022-11-10T16:05:45.214Z,76.46
2022-11-10T16:08:27.159Z,76.46
2022-11-10T16:11:17.591Z,76.34
2022-11-10T16:14:01.163Z,76.53
2022-11-10T16:16:44.267Z,76.93
2022-11-10T16:19:26.418Z,76.81
2022-11-10T16:22:11.054Z,77.28
2022-11-10T16:24:53.318Z,77.27
2022-11-10T16:27:37.084Z,77.33
2022-11-10T16:30:19.780Z,77.59
2022-11-10T16:33:01.872Z,77.54
2022-11-10T16:35:44.610Z,77.70
2022-11-10T16:38:30.394Z,77.92
2022-11-10T16:41:14.692Z,77.84
2022-11-10T16:43:56.577Z,77.99
2022-11-10T16:46:41.336Z,78.30
2022-11-10T16:49:31.684Z,78.57
2022-11-10T16:52:16.163Z,78.41
2022-11-10T16:54:58.102Z,78.78
2022-11-10T16:57:40.674Z,78.63
2022-11-10T17:00:23.028Z,78.57
2022-11-10T17:03:11.329Z,78.97
2022-11-10T17:05:54.048Z,78.97
2022-11-10T17:08:36.541Z,78.94
2022-11-10T17:11:19.043Z,78.92
2022-11-10T17:14:00.918Z,78.82
2022-11-10T17:16:45.434Z,78.70
2022-11-10T17:19:27.867Z,79.00
2022-11-10T17:22:11.543Z,79.47
2022-11-10T17:24:56.047Z,79.22
2022-11-10T17:27:38.213Z,79.20
2022-11-10T17:30:21.146Z,79.81
2022-11-10T17:33:05.222Z,80.21
2022-11-10T17:35:51.513Z,80.34
2022-11-10T17:38:33.589Z,80.30
2022-11-10T17:41:21.304Z,81.05
2022-11-10T17:44:04.574Z,81.11
2022-11-10T17:46:46.629Z,81.24
2022-11-10T17:49:28.919Z,81.39
2022-11-10T17:52:18.020Z,81.19
2022-11-10T17:55:00.199Z,81.11
2022-11-10T17:57:42.560Z,81.15
2022-11-10T18:00:25.330Z,81.89
2022-11-10T18:03:12.471Z,81.82
2022-11-10T18:05:54.489Z,81.75
2022-11-10T18:08:37.791Z,81.91
2022-11-10T18:11:20.134Z,82.09
2022-11-10T18:14:03.474Z,82.67
2022-11-10T18:16:45.830Z,83.00
2022-11-10T18:19:28.228Z,83.01
2022-11-10T18:22:10.265Z,82.77
2022-11-10T18:24:52.829Z,82.83
2022-11-10T18:27:35.778Z,83.10
2022-11-10T18:30:19.919Z,83.05
2022-11-10T18:33:03.770Z,83.53
2022-11-10T18:35:46.035Z,83.29
2022-11-10T18:38:31.490Z,83.38
2022-11-10T18:41:28.926Z,83.17
2022-11-10T18:44:11.730Z,82.32
2022-11-10T18:46:54.044Z,81.64
2022-11-10T18:49:36.345Z,81.08
2022-11-10T18:52:19.084Z,80.49
2022-11-10T18:55:01.128Z,80.08
2022-11-10T18:57:44.472Z,80.03
2022-11-10T19:00:27.357Z,79.70
2022-11-10T19:03:09.306Z,79.65
2022-11-10T19:05:58.387Z,79.85
2022-11-10T19:08:41.348Z,79.65
2022-11-10T19:11:24.078Z,79.44
2022-11-10T19:14:06.332Z,79.52
2022-11-10T19:16:49.099Z,79.60
2022-11-10T19:19:31.643Z,79.33
2022-11-10T19:22:13.686Z,79.61
2022-11-10T19:25:11.298Z,79.73
2022-11-10T19:28:11.535Z,79.65
2022-11-10T19:30:53.769Z,80.09
2022-11-10T19:33:38.284Z,80.37
2022-11-10T19:36:23.533Z,80.26
2022-11-10T19:39:06.199Z,80.25
2022-11-10T19:42:03.735Z,80.51
2022-11-10T19:45:02.424Z,80.76
2022-11-10T19:47:46.463Z,80.63
2022-11-10T19:50:28.575Z,80.58
2022-11-10T19:53:10.726Z,80.43
2022-11-10T19:55:53.617Z,80.63
2022-11-10T19:58:37.824Z,80.51
2022-11-10T20:01:21.180Z,80.65
2022-11-10T20:04:04.320Z,80.67
2022-11-10T20:06:46.567Z,80.41
2022-11-10T20:09:28.738Z,80.42
2022-11-10T20:12:10.994Z,80.66
2022-11-10T20:14:54.525Z,81.15
2022-11-10T20:17:36.626Z,81.71
2022-11-10T20:20:19.205Z,81.64
2022-11-10T20:23:19.461Z,81.75
2022-11-10T20:26:03.435Z,82.19
2022-11-10T20:28:46.084Z,82.27
2022-11-10T20:31:28.432Z,82.10
2022-11-10T20:34:10.409Z,81.91
2022-11-10T20:36:54.570Z,81.66
2022-11-10T20:39:36.810Z,81.55
2022-11-10T20:42:18.935Z,82.19
2022-11-10T20:45:01.451Z,83.64
2022-11-10T20:47:43.634Z,84.35
2022-11-10T20:50:26.335Z,85.09
2022-11-10T20:53:08.868Z,84.92
2022-11-10T20:55:58.025Z,84.73
2022-11-10T20:58:41.696Z,85.88
2022-11-10T21:01:23.954Z,86.85
2022-11-10T21:04:21.633Z,86.50
2022-11-10T21:07:03.758Z,86.30
2022-11-10T21:09:46.102Z,85.87
2022-11-10T21:12:43.581Z,86.87
2022-11-10T21:15:26.104Z,87.42
2022-11-10T21:18:08.201Z,87.77
2022-11-10T21:20:51.639Z,87.28
2022-11-10T21:23:33.929Z,87.29
2022-11-10T21:26:16.140Z,87.29
2022-11-10T21:28:58.806Z,87.10
2022-11-10T21:31:40.903Z,86.52
2022-11-10T21:34:23.260Z,86.19
2022-11-10T21:37:05.334Z,85.87
2022-11-10T21:39:47.858Z,85.59
2022-11-10T21:42:35.198Z,85.83
2022-11-10T21:45:18.024Z,84.67
2022-11-10T21:48:01.320Z,84.64
2022-11-10T21:50:43.852Z,84.85
2022-11-10T21:53:26.271Z,85.35
2022-11-10T21:56:10.310Z,85.65
2022-11-10T21:58:52.602Z,85.36
2022-11-10T22:01:34.999Z,85.95
2022-11-10T22:04:17.106Z,86.63
2022-11-10T22:07:14.849Z,87.42
2022-11-10T22:10:12.404Z,87.99
2022-11-10T22:13:10.659Z,87.37
2022-11-10T22:16:08.355Z,87.91
2022-11-10T22:18:50.913Z,87.98
2022-11-10T22:21:32.978Z,87.81
2022-11-10T22:24:30.686Z,87.62
2022-11-10T22:27:13.008Z,88.19
2022-11-10T22:29:55.407Z,88.48
2022-11-10T22:32:37.508Z,88.81
2022-11-10T22:35:35.155Z,89.16
2022-11-10T22:38:17.393Z,89.37
2022-11-10T22:41:15.130Z,89.03
2022-11-10T22:44:05.114Z,88.86
2022-11-10T22:46:51.089Z,88.62
2022-11-10T22:49:33.397Z,88.81
2022-11-10T22:52:16.090Z,88.66
2022-11-10T22:54:58.571Z,88.67
2022-11-10T22:57:40.684Z,88.50
2022-11-10T23:00:24.457Z,88.34
2022-11-10T23:03:06.790Z,88.34
2022-11-10T23:05:56.331Z,88.00
2022-11-10T23:08:39.136Z,87.61
2022-11-10T23:11:23.975Z,87.38
2022-11-10T23:14:18.157Z,86.96
2022-11-10T23:17:03.203Z,87.13
2022-11-10T23:19:45.140Z,87.00
2022-11-10T23:22:28.170Z,86.88
2022-11-10T23:25:10.426Z,86.47
2022-11-10T23:27:52.725Z,86.47
2022-11-10T23:30:35.054Z,86.13
2022-11-10T23:33:17.209Z,86.15
2022-11-10T23:35:59.606Z,85.96
2022-11-10T23:38:43.033Z,85.61
2022-11-10T23:41:26.273Z,85.40
2022-11-10T23:44:08.479Z,85.10
2022-11-10T23:46:50.618Z,85.21
2022-11-10T23:49:32.702Z,85.12
2022-11-10T23:52:14.993Z,85.29
2022-11-10T23:54:57.429Z,84.84
2022-11-10T23:57:39.551Z,84.91
